createdAt,value
2018-05-25T00:00:09.331Z,13.60
2018-05-25T00:02:37.699Z,13.60
2018-05-25T00:05:07.035Z,13.50
2018-05-25T00:07:35.567Z,13.40
2018-05-25T00:10:03.958Z,13.40
2018-05-25T00:12:33.111Z,13.30
2018-05-25T00:15:01.566Z,13.30
2018-05-25T00:17:29.959Z,13.20
2018-05-25T00:19:58.384Z,13.10
2018-05-25T00:22:26.844Z,13.10
2018-05-25T00:24:55.246Z,13.00
2018-05-25T00:27:23.780Z,12.90
2018-05-25T00:29:52.226Z,12.80
2018-05-25T00:32:20.593Z,12.80
2018-05-25T00:34:49.760Z,12.60
2018-05-25T00:37:19.259Z,12.60
2018-05-25T00:39:47.739Z,12.50
2018-05-25T00:42:16.875Z,12.40
2018-05-25T00:44:47.281Z,12.40
2018-05-25T00:47:15.827Z,12.30
2018-05-25T00:49:44.187Z,12.20
2018-05-25T00:52:13.372Z,12.10
2018-05-25T00:54:44.116Z,12.10
2018-05-25T00:57:16.452Z,12.10
2018-05-25T00:59:44.828Z,12.00
2018-05-25T01:02:13.270Z,11.90
2018-05-25T01:04:41.723Z,11.80
2018-05-25T01:07:10.168Z,11.70
2018-05-25T01:09:38.707Z,11.60
2018-05-25T01:12:07.212Z,11.50
2018-05-25T01:14:36.814Z,11.40
2018-05-25T01:17:05.168Z,11.40
2018-05-25T01:19:33.719Z,11.40
2018-05-25T01:22:04.094Z,11.20
2018-05-25T01:24:32.455Z,11.20
2018-05-25T01:27:01.679Z,11.20
2018-05-25T01:29:30.900Z,11.10
2018-05-25T01:31:59.479Z,11.20
2018-05-25T01:34:28.783Z,11.10
2018-05-25T01:36:58.095Z,11.10
2018-05-25T01:39:27.934Z,11.10
2018-05-25T01:41:57.154Z,11.00
2018-05-25T01:44:25.685Z,11.00
2018-05-25T01:46:54.100Z,10.90
2018-05-25T01:49:23.290Z,10.90
2018-05-25T01:51:51.698Z,10.90
2018-05-25T01:54:20.867Z,10.80
2018-05-25T01:56:49.246Z,10.90
2018-05-25T01:59:18.450Z,10.90
2018-05-25T02:01:47.091Z,10.80
2018-05-25T02:04:15.624Z,10.90
2018-05-25T02:06:45.979Z,10.80
2018-05-25T02:09:14.339Z,10.80
2018-05-25T02:11:42.750Z,10.80
2018-05-25T02:14:12.846Z,10.80
2018-05-25T02:16:41.225Z,10.70
2018-05-25T02:19:09.598Z,10.70
2018-05-25T02:21:38.054Z,10.70
2018-05-25T02:24:06.596Z,10.70
2018-05-25T02:26:34.995Z,10.70
2018-05-25T02:29:04.403Z,10.70
2018-05-25T02:31:32.943Z,10.60
2018-05-25T02:34:01.367Z,10.50
2018-05-25T02:36:29.750Z,10.40
2018-05-25T02:38:58.103Z,10.30
2018-05-25T02:41:26.511Z,10.20
2018-05-25T02:43:54.914Z,10.10
2018-05-25T02:46:23.512Z,10.00
2018-05-25T02:48:51.882Z,10.00
2018-05-25T02:51:20.242Z,10.00
2018-05-25T02:53:49.571Z,10.00
2018-05-25T02:56:17.936Z,10.00
2018-05-25T02:58:47.215Z,10.00
2018-05-25T03:01:16.372Z,10.10
2018-05-25T03:03:44.915Z,10.00
2018-05-25T03:06:13.408Z,10.10
2018-05-25T03:08:44.306Z,10.10
2018-05-25T03:11:12.755Z,10.10
2018-05-25T03:13:41.216Z,10.10
2018-05-25T03:16:09.630Z,10.10
2018-05-25T03:18:38.022Z,10.10
2018-05-25T03:21:06.445Z,10.10
2018-05-25T03:23:34.986Z,10.10
2018-05-25T03:26:03.394Z,10.10
2018-05-25T03:28:32.559Z,10.10
2018-05-25T03:31:02.463Z,10.00
2018-05-25T03:33:30.862Z,10.10
2018-05-25T03:35:59.230Z,10.10
2018-05-25T03:38:27.794Z,10.10
2018-05-25T03:40:56.933Z,10.10
2018-05-25T03:43:27.251Z,10.10
2018-05-25T03:45:55.730Z,10.10
2018-05-25T03:48:24.103Z,10.20
2018-05-25T03:50:52.499Z,10.20
2018-05-25T03:53:22.295Z,10.20
2018-05-25T03:55:50.678Z,10.10
2018-05-25T03:58:19.083Z,10.00
2018-05-25T04:00:59.135Z,9.90
2018-05-25T04:03:28.315Z,9.90
2018-05-25T04:05:56.747Z,9.90
2018-05-25T04:08:25.962Z,10.10
2018-05-25T04:10:54.383Z,10.10
2018-05-25T04:13:23.514Z,10.50
2018-05-25T04:15:51.903Z,10.50
2018-05-25T04:18:20.376Z,10.70
2018-05-25T04:20:50.098Z,11.10
2018-05-25T04:23:18.552Z,11.10
2018-05-25T04:25:47.459Z,11.40
2018-05-25T04:28:15.909Z,11.50
2018-05-25T04:30:44.271Z,11.70
2018-05-25T04:33:12.650Z,11.90
2018-05-25T04:35:41.031Z,12.10
2018-05-25T04:38:09.919Z,12.30
2018-05-25T04:40:38.334Z,12.50
2018-05-25T04:43:07.407Z,12.70
2018-05-25T04:45:35.907Z,12.90
2018-05-25T04:48:04.447Z,13.10
2018-05-25T04:50:32.827Z,13.20
2018-05-25T04:53:01.283Z,13.40
2018-05-25T04:55:29.638Z,13.60
2018-05-25T04:57:58.031Z,13.70
2018-05-25T05:00:26.409Z,13.90
2018-05-25T05:02:55.591Z,14.10
2018-05-25T05:05:23.986Z,14.10
2018-05-25T05:07:53.287Z,14.40
2018-05-25T05:10:21.700Z,14.40
2018-05-25T05:12:50.222Z,14.60
2018-05-25T05:15:18.632Z,14.70
2018-05-25T05:17:47.567Z,14.90
2018-05-25T05:20:15.959Z,15.00
2018-05-25T05:22:44.449Z,15.10
2018-05-25T05:25:12.828Z,15.10
2018-05-25T05:27:41.295Z,15.20
2018-05-25T05:30:09.651Z,15.30
2018-05-25T05:32:38.039Z,15.40
2018-05-25T05:35:07.235Z,15.70
2018-05-25T05:37:35.632Z,15.60
2018-05-25T05:40:05.211Z,15.80
2018-05-25T05:42:34.362Z,15.80
2018-05-25T05:45:02.795Z,15.80
2018-05-25T05:47:31.708Z,16.00
2018-05-25T05:50:00.101Z,16.10
2018-05-25T05:52:28.467Z,16.30
2018-05-25T05:54:57.599Z,16.70
2018-05-25T05:57:26.248Z,16.70
2018-05-25T05:59:54.643Z,16.80
2018-05-25T06:02:25.243Z,17.20
2018-05-25T06:04:53.595Z,17.20
2018-05-25T06:07:22.135Z,17.40
2018-05-25T06:09:50.583Z,17.50
2018-05-25T06:12:18.971Z,17.70
2018-05-25T06:14:47.697Z,17.90
2018-05-25T06:17:16.102Z,18.00
2018-05-25T06:22:07.863Z,18.30
2018-05-25T06:24:37.163Z,18.60
2018-05-25T06:27:05.587Z,18.60
2018-05-25T06:29:33.959Z,18.70
2018-05-25T06:32:02.392Z,18.70
2018-05-25T06:34:30.819Z,18.90
2018-05-25T06:37:00.257Z,19.10
2018-05-25T06:39:28.799Z,19.30
2018-05-25T06:41:57.347Z,19.70
2018-05-25T06:44:26.655Z,21.20
2018-05-25T06:46:55.794Z,22.20
2018-05-25T06:49:25.108Z,23.20
2018-05-25T06:51:54.454Z,24.20
2018-05-25T06:54:22.964Z,24.10
2018-05-25T06:56:51.420Z,25.00
2018-05-25T06:59:20.702Z,26.60
2018-05-25T07:01:49.856Z,27.30
2018-05-25T07:04:18.283Z,27.30
2018-05-25T07:06:48.398Z,28.70
2018-05-25T07:09:18.419Z,28.70
2018-05-25T07:11:46.796Z,29.40
2018-05-25T07:14:15.274Z,29.90
2018-05-25T07:16:43.807Z,30.40
2018-05-25T07:19:12.978Z,31.30
2018-05-25T07:21:43.278Z,31.30
2018-05-25T07:24:11.847Z,31.20
2018-05-25T07:26:40.388Z,31.50
2018-05-25T07:29:08.786Z,31.70
2018-05-25T07:31:37.931Z,30.80
2018-05-25T07:34:06.474Z,30.80
2018-05-25T07:36:35.011Z,30.40
2018-05-25T07:39:03.407Z,30.70
2018-05-25T07:41:31.774Z,31.10
2018-05-25T07:44:00.470Z,31.50
2018-05-25T07:46:29.037Z,32.00
2018-05-25T07:48:57.442Z,32.50
2018-05-25T07:51:26.566Z,32.80
2018-05-25T07:53:56.355Z,32.80
2018-05-25T07:56:24.955Z,32.70
2018-05-25T07:58:54.142Z,32.00
2018-05-25T08:01:22.549Z,32.00
2018-05-25T08:03:50.971Z,31.50
2018-05-25T08:06:20.317Z,31.00
2018-05-25T08:08:48.806Z,30.50
2018-05-25T08:11:17.934Z,29.50
2018-05-25T08:13:46.463Z,29.40
2018-05-25T08:16:14.831Z,29.10
2018-05-25T08:18:44.011Z,28.50
2018-05-25T08:21:12.440Z,28.40
2018-05-25T08:23:40.919Z,28.20
2018-05-25T08:26:10.072Z,27.70
2018-05-25T08:28:39.382Z,27.40
2018-05-25T08:31:07.754Z,27.40
2018-05-25T08:33:36.198Z,27.30
2018-05-25T08:36:04.614Z,27.10
2018-05-25T08:38:33.019Z,27.00
2018-05-25T08:41:01.408Z,26.90
2018-05-25T08:43:29.867Z,26.70
2018-05-25T08:45:58.262Z,26.80
2018-05-25T08:48:26.818Z,26.60
2018-05-25T08:50:55.977Z,26.50
2018-05-25T08:53:24.536Z,26.40
2018-05-25T08:55:52.935Z,26.40
2018-05-25T08:58:21.514Z,26.30
2018-05-25T09:00:50.518Z,26.00
2018-05-25T09:03:18.928Z,26.00
2018-05-25T09:05:48.031Z,26.00
2018-05-25T09:08:16.574Z,25.80
2018-05-25T09:10:45.007Z,25.90
2018-05-25T09:13:13.539Z,25.90
2018-05-25T09:15:41.916Z,25.90
2018-05-25T09:18:10.388Z,25.90
2018-05-25T09:20:38.811Z,25.80
2018-05-25T09:23:07.182Z,25.70
2018-05-25T09:25:36.499Z,25.50
2018-05-25T09:28:04.899Z,25.00
2018-05-25T09:30:33.267Z,24.80
2018-05-25T09:33:01.643Z,24.90
2018-05-25T09:35:30.027Z,24.90
2018-05-25T09:37:58.491Z,25.00
2018-05-25T09:40:26.915Z,25.10
2018-05-25T09:42:56.321Z,25.00
2018-05-25T09:45:24.700Z,25.10
2018-05-25T09:47:53.171Z,25.20
2018-05-25T09:50:22.338Z,25.30
2018-05-25T09:52:51.500Z,25.10
2018-05-25T09:55:19.987Z,25.10
2018-05-25T09:57:58.403Z,25.00
2018-05-25T10:00:26.827Z,25.00
2018-05-25T10:02:55.226Z,24.90
2018-05-25T10:05:23.755Z,25.00
2018-05-25T10:07:52.206Z,25.00
2018-05-25T10:10:22.429Z,25.10
2018-05-25T10:12:50.868Z,25.00
2018-05-25T10:15:19.269Z,25.10
2018-05-25T10:17:48.208Z,24.80
2018-05-25T10:20:16.622Z,24.80
2018-05-25T10:22:45.048Z,24.80
2018-05-25T10:25:14.197Z,25.00
2018-05-25T10:27:43.494Z,24.80
2018-05-25T10:30:11.906Z,24.70
2018-05-25T10:32:40.271Z,24.80
2018-05-25T10:35:08.682Z,24.70
2018-05-25T10:37:37.185Z,24.80
2018-05-25T10:40:05.547Z,24.90
2018-05-25T10:42:33.947Z,25.10
2018-05-25T10:45:02.403Z,25.20
2018-05-25T10:47:30.947Z,25.10
2018-05-25T10:50:01.127Z,25.40
2018-05-25T10:52:29.510Z,25.40
2018-05-25T10:54:57.923Z,25.50
2018-05-25T10:57:26.356Z,25.40
2018-05-25T10:59:55.619Z,25.40
2018-05-25T11:02:24.092Z,25.30
2018-05-25T11:04:53.238Z,25.30
2018-05-25T11:07:21.614Z,25.30
2018-05-25T11:09:50.032Z,25.10
2018-05-25T11:12:18.566Z,25.10
2018-05-25T11:14:48.631Z,25.10
2018-05-25T11:17:17.055Z,25.00
2018-05-25T11:19:46.231Z,25.20
2018-05-25T11:22:14.691Z,25.10
2018-05-25T11:24:43.126Z,25.20
2018-05-25T11:27:12.279Z,25.40
2018-05-25T11:29:41.910Z,25.20
2018-05-25T11:32:10.351Z,25.20
2018-05-25T11:34:38.858Z,25.20
2018-05-25T11:37:08.306Z,25.10
2018-05-25T11:39:36.679Z,25.00
2018-05-25T11:42:05.051Z,25.10
2018-05-25T11:44:33.451Z,25.20
2018-05-25T11:47:01.835Z,25.20
2018-05-25T11:49:30.306Z,25.10
2018-05-25T11:51:58.678Z,25.10
2018-05-25T11:54:27.157Z,25.00
2018-05-25T11:56:56.474Z,24.90
2018-05-25T11:59:24.878Z,24.80
2018-05-25T12:01:53.317Z,25.00
2018-05-25T12:04:21.798Z,25.20
2018-05-25T12:06:50.344Z,25.30
2018-05-25T12:09:21.047Z,25.20
2018-05-25T12:11:49.604Z,25.20
2018-05-25T12:14:18.172Z,25.10
2018-05-25T12:16:46.590Z,24.90
2018-05-25T12:19:15.003Z,24.80
2018-05-25T12:21:43.407Z,24.90
2018-05-25T12:24:11.787Z,24.80
2018-05-25T12:26:40.194Z,24.90
2018-05-25T12:29:08.571Z,24.90
2018-05-25T12:31:36.984Z,25.00
2018-05-25T12:34:05.456Z,24.90
2018-05-25T12:36:34.000Z,24.70
2018-05-25T12:39:02.419Z,24.70
2018-05-25T12:41:30.807Z,24.80
2018-05-25T12:43:59.207Z,24.90
2018-05-25T12:46:28.007Z,25.10
2018-05-25T12:48:57.243Z,25.10
2018-05-25T12:51:25.650Z,24.90
2018-05-25T12:53:54.030Z,24.70
2018-05-25T12:56:22.438Z,24.40
2018-05-25T12:58:50.865Z,24.40
2018-05-25T13:01:19.226Z,24.50
2018-05-25T13:03:49.033Z,24.60
2018-05-25T13:06:17.451Z,24.70
2018-05-25T13:08:46.762Z,24.60
2018-05-25T13:11:15.174Z,24.50
2018-05-25T13:13:43.614Z,24.50
2018-05-25T13:16:12.049Z,24.30
2018-05-25T13:18:40.639Z,24.30
2018-05-25T13:21:09.035Z,24.60
2018-05-25T13:23:37.531Z,24.80
2018-05-25T13:26:06.670Z,24.90
2018-05-25T13:28:36.562Z,24.90
2018-05-25T13:31:05.926Z,24.90
2018-05-25T13:33:35.127Z,24.70
2018-05-25T13:36:03.511Z,24.70
2018-05-25T13:38:31.922Z,24.70
2018-05-25T13:41:01.080Z,24.60
2018-05-25T13:43:29.538Z,24.60
2018-05-25T13:45:58.830Z,24.50
2018-05-25T13:48:27.374Z,24.30
2018-05-25T13:50:57.306Z,24.10
2018-05-25T13:53:25.728Z,24.20
2018-05-25T13:55:54.867Z,24.20
2018-05-25T13:58:23.422Z,24.20
2018-05-25T14:00:52.038Z,24.30
2018-05-25T14:03:21.378Z,24.60
2018-05-25T14:05:50.541Z,24.80
2018-05-25T14:08:18.966Z,24.80
2018-05-25T14:10:49.064Z,24.80
2018-05-25T14:13:19.237Z,24.50
2018-05-25T14:15:48.659Z,24.50
2018-05-25T14:18:17.235Z,24.50
2018-05-25T14:20:46.778Z,24.50
2018-05-25T14:23:15.206Z,24.60
2018-05-25T14:25:43.570Z,24.80
2018-05-25T14:28:12.000Z,25.00
2018-05-25T14:30:40.339Z,25.00
2018-05-25T14:33:08.714Z,24.70
2018-05-25T14:35:37.286Z,24.50
2018-05-25T14:38:05.761Z,24.50
2018-05-25T14:40:34.151Z,24.20
2018-05-25T14:43:02.554Z,24.30
2018-05-25T14:45:30.923Z,24.30
2018-05-25T14:48:00.221Z,24.30
2018-05-25T14:50:28.831Z,24.40
2018-05-25T14:52:57.293Z,24.40
2018-05-25T14:55:26.515Z,24.20
2018-05-25T14:57:54.901Z,24.20
2018-05-25T15:00:23.326Z,24.20
2018-05-25T15:02:52.577Z,24.30
2018-05-25T15:05:21.908Z,24.20
2018-05-25T15:07:51.387Z,24.10
2018-05-25T15:10:19.807Z,24.10
2018-05-25T15:12:48.810Z,23.90
2018-05-25T15:15:17.986Z,24.10
2018-05-25T15:17:46.370Z,24.00
2018-05-25T15:20:14.775Z,24.10
2018-05-25T15:22:43.175Z,24.10
2018-05-25T15:25:11.739Z,24.10
2018-05-25T15:27:40.271Z,24.30
2018-05-25T15:30:08.697Z,24.30
2018-05-25T15:32:37.238Z,24.40
2018-05-25T15:35:05.590Z,24.20
2018-05-25T15:37:34.044Z,24.20
2018-05-25T15:40:03.736Z,24.30
2018-05-25T15:42:32.299Z,24.30
2018-05-25T15:45:00.842Z,24.40
2018-05-25T15:47:29.526Z,24.50
2018-05-25T15:49:57.934Z,24.40
2018-05-25T15:52:26.344Z,24.50
2018-05-25T15:54:55.525Z,24.80
2018-05-25T15:57:24.692Z,24.80
2018-05-25T15:59:53.273Z,24.80
2018-05-25T16:02:21.915Z,24.90
2018-05-25T16:04:51.183Z,25.00
2018-05-25T16:07:19.736Z,25.00
2018-05-25T16:09:49.127Z,25.10
2018-05-25T16:12:18.598Z,25.20
2018-05-25T16:14:47.079Z,25.20
2018-05-25T16:17:15.482Z,25.20
2018-05-25T16:19:43.904Z,25.10
2018-05-25T16:22:13.084Z,25.00
2018-05-25T16:24:41.636Z,24.70
2018-05-25T16:27:10.192Z,24.60
2018-05-25T16:29:38.678Z,24.50
2018-05-25T16:32:08.157Z,24.50
2018-05-25T16:34:36.607Z,24.40
2018-05-25T16:37:05.080Z,24.30
2018-05-25T16:39:33.507Z,24.20
2018-05-25T16:42:02.047Z,24.10
2018-05-25T16:44:30.474Z,24.00
2018-05-25T16:46:58.931Z,24.00
2018-05-25T16:49:30.447Z,24.20
2018-05-25T16:51:58.952Z,24.40
2018-05-25T16:54:27.342Z,24.40
2018-05-25T16:56:55.774Z,24.50
2018-05-25T16:59:24.216Z,24.50
2018-05-25T17:01:53.431Z,23.80
2018-05-25T17:04:21.998Z,23.80
2018-05-25T17:06:50.491Z,23.90
2018-05-25T17:09:19.711Z,23.80
2018-05-25T17:11:50.767Z,23.70
2018-05-25T17:14:19.159Z,23.70
2018-05-25T17:16:49.303Z,23.70
2018-05-25T17:19:17.727Z,23.70
2018-05-25T17:21:46.118Z,23.80
2018-05-25T17:24:14.683Z,23.80
2018-05-25T17:26:43.128Z,23.90
2018-05-25T17:29:11.527Z,23.70
2018-05-25T17:31:40.017Z,23.50
2018-05-25T17:34:08.434Z,23.40
2018-05-25T17:36:37.680Z,23.30
2018-05-25T17:39:06.227Z,23.30
2018-05-25T17:41:34.713Z,23.20
2018-05-25T17:44:04.070Z,23.10
2018-05-25T17:46:33.939Z,22.90
2018-05-25T17:49:02.358Z,22.90
2018-05-25T17:51:30.791Z,22.90
2018-05-25T17:53:59.190Z,22.70
2018-05-25T17:56:27.767Z,22.90
2018-05-25T17:58:56.183Z,22.80
2018-05-25T18:01:24.642Z,22.80
2018-05-25T18:03:53.093Z,22.90
2018-05-25T18:06:21.518Z,22.90
2018-05-25T18:08:50.766Z,22.80
2018-05-25T18:11:19.931Z,22.70
2018-05-25T18:13:49.108Z,22.70
2018-05-25T18:16:17.687Z,22.50
2018-05-25T18:18:46.135Z,22.50
2018-05-25T18:21:15.339Z,22.40
2018-05-25T18:23:44.535Z,22.40
2018-05-25T18:26:12.994Z,22.40
2018-05-25T18:28:42.351Z,22.40
2018-05-25T18:31:10.774Z,22.40
2018-05-25T18:33:40.091Z,21.90
2018-05-25T18:36:08.465Z,21.90
2018-05-25T18:38:36.851Z,21.90
2018-05-25T18:41:06.170Z,21.60
2018-05-25T18:43:34.575Z,21.60
2018-05-25T18:46:03.887Z,21.60
2018-05-25T18:48:34.059Z,21.70
2018-05-25T18:53:59.935Z,21.70
2018-05-25T18:56:28.474Z,21.70
2018-05-25T18:58:56.987Z,21.70
2018-05-25T19:01:25.404Z,21.80
2018-05-25T19:03:53.946Z,21.90
2018-05-25T19:06:22.359Z,21.90
2018-05-25T19:08:51.308Z,21.90
2018-05-25T19:11:19.711Z,22.00
2018-05-25T19:13:49.195Z,21.90
2018-05-25T19:16:17.713Z,21.90
2018-05-25T19:18:47.446Z,21.90
2018-05-25T19:21:15.904Z,21.80
2018-05-25T19:23:44.491Z,21.70
2018-05-25T19:26:13.035Z,21.60
2018-05-25T19:28:41.595Z,21.60
2018-05-25T19:31:10.139Z,21.50
2018-05-25T19:33:38.675Z,21.50
2018-05-25T19:36:07.878Z,21.30
2018-05-25T19:38:36.368Z,21.30
2018-05-25T19:41:05.231Z,21.10
2018-05-25T19:43:34.547Z,20.90
2018-05-25T19:46:02.923Z,20.90
2018-05-25T19:48:31.340Z,20.80
2018-05-25T19:50:59.871Z,20.60
2018-05-25T19:53:29.107Z,20.50
2018-05-25T19:55:58.315Z,20.40
2018-05-25T19:58:27.638Z,20.30
2018-05-25T20:00:57.976Z,20.30
2018-05-25T20:03:26.434Z,20.20
2018-05-25T20:05:55.035Z,20.20
2018-05-25T20:08:23.465Z,20.00
2018-05-25T20:10:52.395Z,19.90
2018-05-25T20:13:21.694Z,19.60
2018-05-25T20:15:50.174Z,19.60
2018-05-25T20:18:19.735Z,19.60
2018-05-25T20:20:49.197Z,19.60
2018-05-25T20:23:17.683Z,19.40
2018-05-25T20:25:46.903Z,19.40
2018-05-25T20:28:16.046Z,19.30
2018-05-25T20:30:44.559Z,19.20
2018-05-25T20:33:13.111Z,19.20
2018-05-25T20:35:42.735Z,19.10
2018-05-25T20:38:11.152Z,19.00
2018-05-25T20:40:39.579Z,19.00
2018-05-25T20:43:08.103Z,19.00
2018-05-25T20:45:37.345Z,18.90
2018-05-25T20:48:05.884Z,18.80
2018-05-25T20:50:34.395Z,18.80
2018-05-25T20:53:02.889Z,18.70
2018-05-25T20:55:32.107Z,18.70
2018-05-25T20:58:00.659Z,18.60
2018-05-25T21:00:29.838Z,18.40
2018-05-25T21:02:58.393Z,18.40
2018-05-25T21:05:26.942Z,18.30
2018-05-25T21:07:55.482Z,18.20
2018-05-25T21:10:25.246Z,18.10
2018-05-25T21:12:54.383Z,18.00
2018-05-25T21:15:24.910Z,17.90
2018-05-25T21:17:54.931Z,17.80
2018-05-25T21:20:23.492Z,17.80
2018-05-25T21:22:52.610Z,17.60
2018-05-25T21:25:21.917Z,17.50
2018-05-25T21:27:50.331Z,17.50
2018-05-25T21:30:18.880Z,17.40
2018-05-25T21:32:48.195Z,17.20
2018-05-25T21:35:16.759Z,17.20
2018-05-25T21:37:45.294Z,17.10
2018-05-25T21:40:15.157Z,17.00
2018-05-25T21:42:43.734Z,16.90
2018-05-25T21:45:12.275Z,16.90
2018-05-25T21:47:41.619Z,16.80
2018-05-25T21:50:10.155Z,16.70
2018-05-25T21:52:38.540Z,16.70
2018-05-25T21:55:07.867Z,16.50
2018-05-25T21:57:36.323Z,16.60
2018-05-25T22:00:05.640Z,16.50
2018-05-25T22:02:35.247Z,16.40
2018-05-25T22:05:03.624Z,16.40
2018-05-25T22:07:32.786Z,16.30
2018-05-25T22:10:02.943Z,16.20
2018-05-25T22:12:31.331Z,16.20
2018-05-25T22:15:00.690Z,16.10
2018-05-25T22:17:29.051Z,16.10
2018-05-25T22:19:57.587Z,16.00
2018-05-25T22:22:26.011Z,16.00
2018-05-25T22:24:55.311Z,16.00
2018-05-25T22:27:23.999Z,16.00
2018-05-25T22:29:52.460Z,15.90
2018-05-25T22:32:20.839Z,15.90
2018-05-25T22:34:49.706Z,15.80
2018-05-25T22:37:18.862Z,15.80
2018-05-25T22:39:47.417Z,15.80
2018-05-25T22:42:28.309Z,15.80
2018-05-25T22:45:08.748Z,15.80
2018-05-25T22:47:49.282Z,15.80
2018-05-25T22:50:31.179Z,15.80
2018-05-25T22:53:04.755Z,15.70
2018-05-25T22:55:33.307Z,15.70
2018-05-25T22:58:01.694Z,15.60
2018-05-25T23:00:32.480Z,15.50
2018-05-25T23:03:00.847Z,15.50
2018-05-25T23:05:29.322Z,15.50
2018-05-25T23:07:58.623Z,15.40
2018-05-25T23:10:27.002Z,15.30
2018-05-25T23:12:55.599Z,15.40
2018-05-25T23:15:23.999Z,15.30
2018-05-25T23:17:53.199Z,15.20
2018-05-25T23:20:22.384Z,15.10
2018-05-25T23:22:51.418Z,15.10
2018-05-25T23:25:19.953Z,15.10
2018-05-25T23:27:49.609Z,15.00
2018-05-25T23:30:18.075Z,14.90
2018-05-25T23:32:46.478Z,14.80
2018-05-25T23:35:15.698Z,14.70
2018-05-25T23:37:44.233Z,14.70
2018-05-25T23:40:13.535Z,14.60
2018-05-25T23:42:41.935Z,14.60
2018-05-25T23:45:12.155Z,14.50
2018-05-25T23:47:41.472Z,14.50
2018-05-25T23:50:09.935Z,14.50
2018-05-25T23:52:38.302Z,14.50
2018-05-25T23:55:06.859Z,14.50
2018-05-25T23:57:35.410Z,14.50
